Pagrindinis puslapis
METAR-TAF:

METAR-TAF

Oro uostai :

Førde, Norvegija

platuma: 61-27N, ilguma: 005-52E, Aukštis: 150 m

Dabartinis oras

Ataskaita buvo paskelbta 39 minutes, ne 11:50 UTC
Vėjas 5 kt iš Pietų/Pietvakarių
Temperatūra 1°C
Drėgmė 93%
Slėgis 991 hPa
Matomumas: 6000 m
Mažai debesys ne aukštis 300 ft
Išsisklaidę debesys ne aukštis 1000 ft
Su prošvaistėmis ne aukštis 1500 ft
lietus, sniegas

METAR: ENBL 161150Z 21005KT 6000 -RASN FEW003 SCT010 BKN015 01/M00 Q0991

Laikas: 13:29 (12:29 UTC)


TAF: trūkstamas

Orai ataskaitas ir orų prognozės (METAR, TAF).

turimą stotys yra geltonos ir raudonos taškus žemėlapyje.

Perkelti pele per norėdami pamatyti stoties vardą.

Tada spustelėkite, norėdami matyti oro stebėjimo ir prognozės.

Norėdami pakeisti žemėlapį: spustelėkite ant žalios mygtukų su juodo kryžiaus žemyn,; žalią mygtuką su brūkšneliu, jei norite nutolinti; arba žalių rodyklių gretimoms žemėlapius.


METAR-TAF: